Time,TemperatureF,DewpointF,PressureIn,WindDirection,WindDirectionDegrees,WindSpeedMPH,WindSpeedGustMPH,Humidity,HourlyPrecipIn,Conditions,Clouds,dailyrainin,SoftwareType,DateUTC
2013-08-02 00:05:00,67.8,67.5,29.87,WSW,241,0.0,0.0,99,0.00,,,0.00,Wunderground v.1.15,2013-08-02 04:05:00,
2013-08-02 00:09:00,67.8,67.5,29.88,WSW,241,0.0,0.0,99,0.00,,,0.00,Wunderground v.1.15,2013-08-02 04:09:00,
2013-08-02 00:15:00,67.7,67.4,29.87,WSW,241,0.0,0.0,99,0.00,,,0.00,Wunderground v.1.15,2013-08-02 04:15:00,
2013-08-02 00:25:00,67.5,67.2,29.88,WSW,242,0.0,0.0,99,0.00,,,0.00,Wunderground v.1.15,2013-08-02 04:25:00,
2013-08-02 00:34:00,67.6,67.3,29.88,WSW,242,0.0,0.0,99,0.00,,,0.00,Wunderground v.1.15,2013-08-02 04:34:00,
2013-08-02 00:40:00,67.6,67.3,29.88,WSW,241,0.0,0.0,99,0.00,,,0.00,Wunderground v.1.15,2013-08-02 04:40:00,
2013-08-02 00:49:00,67.4,67.1,29.88,WSW,242,0.0,0.0,99,0.00,,,0.00,Wunderground v.1.15,2013-08-02 04:49:00,
2013-08-02 00:59:00,67.4,67.1,29.87,WSW,241,0.0,0.0,99,0.00,,,0.00,Wunderground v.1.15,2013-08-02 04:59:00,
2013-08-02 01:05:00,67.5,67.2,29.87,WSW,241,0.0,0.0,99,0.00,,,0.00,Wunderground v.1.15,2013-08-02 05:05:00,
2013-08-02 01:14:00,67.4,67.1,29.88,WSW,241,0.0,0.0,99,0.00,,,0.00,Wunderground v.1.15,2013-08-02 05:14:00,
2013-08-02 01:19:00,67.3,67.0,29.87,WSW,242,0.0,0.0,99,0.00,,,0.00,Wunderground v.1.15,2013-08-02 05:19:00,
2013-08-02 01:25:00,67.2,66.9,29.87,WSW,242,0.0,0.0,99,0.00,,,0.00,Wunderground v.1.15,2013-08-02 05:25:00,
2013-08-02 01:34:00,67.0,66.7,29.86,WSW,241,0.0,0.0,99,0.00,,,0.00,Wunderground v.1.15,2013-08-02 05:34:00,
2013-08-02 01:40:00,67.0,66.7,29.86,WSW,241,0.0,0.0,99,0.00,,,0.00,Wunderground v.1.15,2013-08-02 05:40:00,
2013-08-02 01:50:00,66.9,66.6,29.86,WSW,241,0.0,0.0,99,0.00,,,0.00,Wunderground v.1.15,2013-08-02 05:50:00,
2013-08-02 01:59:00,66.8,66.5,29.86,WSW,241,0.0,0.0,99,0.00,,,0.00,Wunderground v.1.15,2013-08-02 05:59:00,
2013-08-02 02:05:00,66.7,66.4,29.85,WSW,242,0.0,0.0,99,0.00,,,0.00,Wunderground v.1.15,2013-08-02 06:05:00,
2013-08-02 02:15:00,66.6,66.3,29.85,WSW,241,0.0,0.0,99,0.00,,,0.00,Wunderground v.1.15,2013-08-02 06:15:00,
2013-08-02 02:24:00,66.3,66.0,29.85,WSW,242,0.0,0.0,99,0.00,,,0.00,Wunderground v.1.15,2013-08-02 06:24:00,
2013-08-02 02:30:00,66.2,65.9,29.85,WSW,241,0.0,0.0,99,0.00,,,0.00,Wunderground v.1.15,2013-08-02 06:30:00,
2013-08-02 02:40:00,66.1,65.8,29.85,WSW,242,0.0,0.0,99,0.00,,,0.00,Wunderground v.1.15,2013-08-02 06:40:00,
2013-08-02 02:49:00,66.0,65.7,29.85,WSW,241,0.0,0.0,99,0.00,,,0.00,Wunderground v.1.15,2013-08-02 06:49:00,
2013-08-02 02:55:00,66.0,65.7,29.85,West,270,0.0,0.0,99,0.00,,,0.00,Wunderground v.1.15,2013-08-02 06:55:00,
2013-08-02 03:05:00,65.9,65.6,29.85,West,270,0.0,0.0,99,0.00,,,0.00,Wunderground v.1.15,2013-08-02 07:05:00,
2013-08-02 03:15:00,65.8,65.5,29.85,West,270,0.0,0.0,99,0.00,,,0.00,Wunderground v.1.15,2013-08-02 07:15:00,
2013-08-02 03:24:00,65.8,65.5,29.85,West,268,0.0,0.0,99,0.00,,,0.00,Wunderground v.1.15,2013-08-02 07:24:00,
2013-08-02 03:30:00,65.8,65.5,29.86,West,268,0.0,0.0,99,0.00,,,0.00,Wunderground v.1.15,2013-08-02 07:30:00,
2013-08-02 03:39:00,65.9,65.6,29.86,West,268,0.0,0.0,99,0.00,,,0.00,Wunderground v.1.15,2013-08-02 07:39:00,
2013-08-02 03:45:00,66.0,65.7,29.86,West,268,0.0,0.0,99,0.00,,,0.00,Wunderground v.1.15,2013-08-02 07:45:00,
2013-08-02 03:55:00,65.7,65.4,29.87,West,268,0.0,0.0,99,0.00,,,0.00,Wunderground v.1.15,2013-08-02 07:55:00,
2013-08-02 04:05:00,65.4,65.1,29.87,West,268,0.0,0.0,99,0.00,,,0.00,Wunderground v.1.15,2013-08-02 08:05:00,
2013-08-02 04:14:00,65.0,64.7,29.88,West,268,0.0,0.0,99,0.00,,,0.00,Wunderground v.1.15,2013-08-02 08:14:00,
2013-08-02 04:24:00,64.8,64.5,29.88,West,268,0.0,0.0,99,0.00,,,0.00,Wunderground v.1.15,2013-08-02 08:24:00,
2013-08-02 04:29:00,64.7,64.4,29.88,West,268,0.0,0.0,99,0.00,,,0.00,Wunderground v.1.15,2013-08-02 08:29:00,
2013-08-02 04:39:00,64.6,64.3,29.89,West,268,0.0,0.0,99,0.00,,,0.00,Wunderground v.1.15,2013-08-02 08:39:00,
2013-08-02 04:45:00,64.5,64.2,29.89,West,268,0.0,0.0,99,0.00,,,0.00,Wunderground v.1.15,2013-08-02 08:45:00,
2013-08-02 04:54:00,64.1,63.8,29.89,West,268,0.0,0.0,99,0.00,,,0.00,Wunderground v.1.15,2013-08-02 08:54:00,
2013-08-02 05:00:00,64.2,63.9,29.89,West,268,0.0,0.0,99,0.00,,,0.00,Wunderground v.1.15,2013-08-02 09:00:00,
2013-08-02 05:05:00,64.3,64.0,29.90,West,268,0.0,0.0,99,0.00,,,0.00,Wunderground v.1.15,2013-08-02 09:05:00,
2013-08-02 05:14:00,64.1,63.8,29.89,West,268,0.0,0.0,99,0.00,,,0.00,Wunderground v.1.15,2013-08-02 09:14:00,
2013-08-02 05:20:00,64.1,63.8,29.89,West,268,0.0,0.0,99,0.00,,,0.00,Wunderground v.1.15,2013-08-02 09:20:00,
2013-08-02 05:29:00,64.0,63.7,29.89,West,268,0.0,0.0,99,0.00,,,0.00,Wunderground v.1.15,2013-08-02 09:29:00,
2013-08-02 05:35:00,64.0,63.7,29.90,West,268,0.0,0.0,99,0.00,,,0.00,Wunderground v.1.15,2013-08-02 09:35:00,
2013-08-02 05:44:00,63.9,63.6,29.90,West,268,0.0,0.0,99,0.00,,,0.00,Wunderground v.1.15,2013-08-02 09:44:00,
2013-08-02 05:50:00,63.8,63.5,29.90,West,268,0.0,0.0,99,0.00,,,0.00,Wunderground v.1.15,2013-08-02 09:50:00,
2013-08-02 05:59:00,63.5,63.2,29.90,West,268,0.0,0.0,99,0.00,,,0.00,Wunderground v.1.15,2013-08-02 09:59:00,
2013-08-02 06:05:00,63.4,63.1,29.90,West,267,0.0,0.0,99,0.00,,,0.00,Wunderground v.1.15,2013-08-02 10:05:00,
2013-08-02 06:14:00,63.2,62.9,29.90,West,268,0.0,0.0,99,0.00,,,0.00,Wunderground v.1.15,2013-08-02 10:14:00,
2013-08-02 06:19:00,63.1,62.8,29.90,West,268,0.0,0.0,99,0.00,,,0.00,Wunderground v.1.15,2013-08-02 10:19:00,
2013-08-02 06:25:00,63.1,62.8,29.90,West,268,0.0,0.0,99,0.00,,,0.00,Wunderground v.1.15,2013-08-02 10:25:00,
2013-08-02 06:34:00,63.1,62.8,29.91,West,268,0.0,0.0,99,0.00,,,0.00,Wunderground v.1.15,2013-08-02 10:34:00,
2013-08-02 06:44:00,63.2,62.9,29.91,West,268,0.0,0.0,99,0.00,,,0.00,Wunderground v.1.15,2013-08-02 10:44:00,
2013-08-02 06:49:00,63.1,62.8,29.91,West,268,0.0,0.0,99,0.00,,,0.00,Wunderground v.1.15,2013-08-02 10:49:00,
2013-08-02 06:54:00,63.1,62.8,29.91,West,268,0.0,0.0,99,0.00,,,0.00,Wunderground v.1.15,2013-08-02 10:54:00,
2013-08-02 07:05:00,63.1,62.8,29.91,West,268,0.0,0.0,99,0.00,,,0.00,Wunderground v.1.15,2013-08-02 11:05:00,
2013-08-02 07:14:00,63.4,63.1,29.91,West,268,0.0,0.0,99,0.00,,,0.00,Wunderground v.1.15,2013-08-02 11:14:00,
2013-08-02 07:19:00,63.6,63.3,29.91,West,268,0.0,0.0,99,0.00,,,0.00,Wunderground v.1.15,2013-08-02 11:19:00,
2013-08-02 07:25:00,63.8,63.8,29.92,West,268,0.0,0.0,100,0.00,,,0.00,Wunderground v.1.15,2013-08-02 11:25:00,
2013-08-02 07:34:00,64.2,63.9,29.92,West,268,0.0,0.0,99,0.00,,,0.00,Wunderground v.1.15,2013-08-02 11:34:00,
2013-08-02 07:40:00,64.2,63.9,29.92,West,268,0.0,0.0,99,0.00,,,0.00,Wunderground v.1.15,2013-08-02 11:40:00,
2013-08-02 07:49:00,64.5,64.2,29.93,West,268,0.0,0.0,99,0.00,,,0.00,Wunderground v.1.15,2013-08-02 11:49:00,
2013-08-02 07:55:00,64.7,64.4,29.92,West,268,0.0,0.0,99,0.00,,,0.00,Wunderground v.1.15,2013-08-02 11:55:00,
2013-08-02 08:05:00,65.3,65.0,29.93,West,268,0.0,0.0,99,0.00,,,0.00,Wunderground v.1.15,2013-08-02 12:05:00,
2013-08-02 08:15:00,65.6,65.6,29.93,West,268,0.0,0.0,100,0.00,,,0.00,Wunderground v.1.15,2013-08-02 12:15:00,
2013-08-02 08:24:00,66.0,65.7,29.94,West,268,0.0,0.0,99,0.00,,,0.00,Wunderground v.1.15,2013-08-02 12:24:00,
2013-08-02 08:34:00,66.3,66.0,29.93,West,268,0.0,0.0,99,0.00,,,0.00,Wunderground v.1.15,2013-08-02 12:34:00,
2013-08-02 08:40:00,66.5,66.2,29.93,West,268,0.0,0.0,99,0.00,,,0.00,Wunderground v.1.15,2013-08-02 12:40:00,
2013-08-02 08:49:00,66.8,66.5,29.93,West,268,0.0,0.0,99,0.00,,,0.00,Wunderground v.1.15,2013-08-02 12:49:00,
2013-08-02 08:55:00,67.3,66.7,29.93,West,268,0.0,0.0,98,0.00,,,0.00,Wunderground v.1.15,2013-08-02 12:55:00,
2013-08-02 09:05:00,68.1,67.5,29.93,West,264,0.0,0.0,98,0.00,,,0.00,Wunderground v.1.15,2013-08-02 13:05:00,
2013-08-02 09:15:00,68.6,67.4,29.93,SSE,147,0.0,0.0,96,0.00,,,0.00,Wunderground v.1.15,2013-08-02 13:15:00,
2013-08-02 09:25:00,69.4,67.9,29.93,ESE,115,0.0,0.0,95,0.00,,,0.00,Wunderground v.1.15,2013-08-02 13:25:00,
2013-08-02 09:34:00,70.1,68.0,29.94,ESE,116,0.0,0.0,93,0.00,,,0.00,Wunderground v.1.15,2013-08-02 13:34:00,
2013-08-02 09:39:00,70.3,67.5,29.94,ESE,115,0.0,0.0,91,0.00,,,0.00,Wunderground v.1.15,2013-08-02 13:39:00,
2013-08-02 09:49:00,71.0,67.9,29.94,SE,125,0.0,0.0,90,0.00,,,0.00,Wunderground v.1.15,2013-08-02 13:49:00,
2013-08-02 09:54:00,71.3,67.9,29.95,SE,125,0.0,0.0,89,0.00,,,0.00,Wunderground v.1.15,2013-08-02 13:54:00,
2013-08-02 10:05:00,71.8,68.1,29.94,SE,125,0.0,0.0,88,0.00,,,0.00,Wunderground v.1.15,2013-08-02 14:05:00,
2013-08-02 10:15:00,72.4,67.3,29.94,South,181,0.0,0.0,84,0.00,,,0.00,Wunderground v.1.15,2013-08-02 14:15:00,
2013-08-02 10:24:00,73.1,67.3,29.95,South,181,0.0,0.0,82,0.00,,,0.00,Wunderground v.1.15,2013-08-02 14:24:00,
2013-08-02 10:34:00,73.6,67.4,29.94,South,180,0.0,0.0,81,0.00,,,0.00,Wunderground v.1.15,2013-08-02 14:34:00,
2013-08-02 10:40:00,73.8,68.3,29.94,South,180,0.0,0.0,83,0.00,,,0.00,Wunderground v.1.15,2013-08-02 14:40:00,
2013-08-02 10:49:00,74.3,67.7,29.94,SSW,196,0.0,0.0,80,0.00,,,0.00,Wunderground v.1.15,2013-08-02 14:49:00,
2013-08-02 10:55:00,74.5,68.6,29.93,South,182,0.0,0.0,82,0.00,,,0.00,Wunderground v.1.15,2013-08-02 14:55:00,
2013-08-02 11:05:00,75.0,67.7,29.94,SSW,201,0.0,0.0,78,0.00,,,0.00,Wunderground v.1.15,2013-08-02 15:05:00,
2013-08-02 11:15:00,75.3,67.2,29.94,WNW,291,0.0,2.0,76,0.00,,,0.00,Wunderground v.1.15,2013-08-02 15:15:00,
2013-08-02 11:24:00,76.1,68.4,29.94,WNW,291,0.0,0.0,77,0.00,,,0.00,Wunderground v.1.15,2013-08-02 15:24:00,
2013-08-02 11:34:00,76.3,66.6,29.94,WNW,291,0.0,0.0,72,0.00,,,0.00,Wunderground v.1.15,2013-08-02 15:34:00,
2013-08-02 11:39:00,76.5,68.0,29.94,WNW,291,0.0,0.0,75,0.00,,,0.00,Wunderground v.1.15,2013-08-02 15:39:00,
2013-08-02 11:49:00,77.1,66.6,29.94,WNW,282,0.0,0.0,70,0.00,,,0.00,Wunderground v.1.15,2013-08-02 15:49:00,
2013-08-02 11:55:00,77.4,66.8,29.95,WNW,293,0.0,0.0,70,0.00,,,0.00,Wunderground v.1.15,2013-08-02 15:55:00,
2013-08-02 12:05:00,78.2,68.0,29.95,WNW,299,0.0,0.0,71,0.00,,,0.00,Wunderground v.1.15,2013-08-02 16:05:00,
2013-08-02 12:15:00,78.4,66.5,29.95,SE,139,0.0,0.0,67,0.00,,,0.00,Wunderground v.1.15,2013-08-02 16:15:00,
2013-08-02 12:20:00,78.7,65.5,29.95,NW,305,0.0,0.0,64,0.00,,,0.00,Wunderground v.1.15,2013-08-02 16:20:00,
2013-08-02 12:30:00,79.5,66.7,29.95,West,268,0.0,0.0,65,0.00,,,0.00,Wunderground v.1.15,2013-08-02 16:30:00,
2013-08-02 12:39:00,80.1,67.7,29.95,South,172,0.0,0.0,66,0.00,,,0.00,Wunderground v.1.15,2013-08-02 16:39:00,
2013-08-02 12:45:00,80.5,68.1,29.95,NW,326,1.0,1.0,66,0.00,,,0.00,Wunderground v.1.15,2013-08-02 16:45:00,
2013-08-02 12:55:00,80.9,67.6,29.95,WNW,298,0.0,1.0,64,0.00,,,0.00,Wunderground v.1.15,2013-08-02 16:55:00,
2013-08-02 13:05:00,81.7,70.1,29.94,South,188,0.0,0.0,68,0.00,,,0.00,Wunderground v.1.15,2013-08-02 17:05:00,
2013-08-02 13:15:00,82.2,70.6,29.94,SSW,199,0.0,0.0,68,0.00,,,0.00,Wunderground v.1.15,2013-08-02 17:15:00,
2013-08-02 13:24:00,82.9,69.9,29.94,West,278,0.0,2.0,65,0.00,,,0.00,Wunderground v.1.15,2013-08-02 17:24:00,
2013-08-02 13:34:00,82.5,70.0,29.94,West,277,0.0,0.0,66,0.00,,,0.00,Wunderground v.1.15,2013-08-02 17:34:00,
2013-08-02 13:39:00,82.1,67.3,29.93,ENE,60,0.0,1.0,61,0.00,,,0.00,Wunderground v.1.15,2013-08-02 17:39:00,
2013-08-02 13:45:00,82.5,69.1,29.93,SSE,164,0.0,1.0,64,0.00,,,0.00,Wunderground v.1.15,2013-08-02 17:45:00,
2013-08-02 13:55:00,83.2,72.0,29.93,South,174,0.0,0.0,69,0.00,,,0.00,Wunderground v.1.15,2013-08-02 17:55:00,
2013-08-02 14:05:00,83.4,68.5,29.93,West,262,0.0,0.0,61,0.00,,,0.00,Wunderground v.1.15,2013-08-02 18:05:00,
2013-08-02 14:15:00,83.9,69.5,29.93,SW,219,0.0,0.0,62,0.00,,,0.00,Wunderground v.1.15,2013-08-02 18:15:00,
2013-08-02 14:24:00,84.4,69.5,29.93,South,184,0.0,1.0,61,0.00,,,0.00,Wunderground v.1.15,2013-08-02 18:24:00,
2013-08-02 14:30:00,85.2,69.3,29.93,SSW,200,0.0,0.0,59,0.00,,,0.00,Wunderground v.1.15,2013-08-02 18:30:00,
2013-08-02 14:39:00,85.7,70.7,29.92,SSW,210,0.0,1.0,61,0.00,,,0.00,Wunderground v.1.15,2013-08-02 18:39:00,
2013-08-02 14:49:00,84.7,71.2,29.92,SSW,196,0.0,0.0,64,0.00,,,0.00,Wunderground v.1.15,2013-08-02 18:49:00,
2013-08-02 14:54:00,84.7,69.8,29.92,SW,234,0.0,1.0,61,0.00,,,0.00,Wunderground v.1.15,2013-08-02 18:54:00,
2013-08-02 15:05:00,84.0,70.0,29.92,South,182,0.0,0.0,63,0.00,,,0.00,Wunderground v.1.15,2013-08-02 19:05:00,
2013-08-02 15:14:00,85.4,69.9,29.92,WSW,239,0.0,0.0,60,0.00,,,0.00,Wunderground v.1.15,2013-08-02 19:14:00,
2013-08-02 15:24:00,86.3,70.8,29.92,SW,217,0.0,1.0,60,0.00,,,0.00,Wunderground v.1.15,2013-08-02 19:24:00,
2013-08-02 15:30:00,86.4,69.4,29.92,SSE,164,0.0,0.0,57,0.00,,,0.00,Wunderground v.1.15,2013-08-02 19:30:00,
2013-08-02 15:39:00,85.9,71.4,29.92,North,4,0.0,1.0,62,0.00,,,0.00,Wunderground v.1.15,2013-08-02 19:39:00,
2013-08-02 15:45:00,85.8,68.3,29.92,NNW,334,0.0,1.0,56,0.00,,,0.00,Wunderground v.1.15,2013-08-02 19:45:00,
2013-08-02 15:54:00,86.4,68.8,29.92,NNW,330,0.0,0.0,56,0.00,,,0.00,Wunderground v.1.15,2013-08-02 19:54:00,
2013-08-02 15:59:00,86.2,67.1,29.91,SSE,152,0.0,0.0,53,0.00,,,0.00,Wunderground v.1.15,2013-08-02 19:59:00,
2013-08-02 16:05:00,85.9,66.8,29.91,NW,312,1.0,1.0,53,0.00,,,0.00,Wunderground v.1.15,2013-08-02 20:05:00,
2013-08-02 16:14:00,86.6,69.6,29.92,SSW,197,0.0,1.0,57,0.00,,,0.00,Wunderground v.1.15,2013-08-02 20:14:00,
2013-08-02 16:20:00,87.0,67.8,29.91,WSW,241,1.0,1.0,53,0.00,,,0.00,Wunderground v.1.15,2013-08-02 20:20:00,
2013-08-02 16:29:00,86.8,69.7,29.91,South,181,0.0,0.0,57,0.00,,,0.00,Wunderground v.1.15,2013-08-02 20:29:00,
2013-08-02 16:35:00,86.2,67.6,29.91,WNW,303,1.0,1.0,54,0.00,,,0.00,Wunderground v.1.15,2013-08-02 20:35:00,
2013-08-02 16:44:00,86.2,68.1,29.91,South,187,0.0,0.0,55,0.00,,,0.00,Wunderground v.1.15,2013-08-02 20:44:00,
2013-08-02 16:49:00,86.3,69.8,29.91,South,187,0.0,0.0,58,0.00,,,0.00,Wunderground v.1.15,2013-08-02 20:49:00,
2013-08-02 16:59:00,86.3,68.8,29.91,South,184,0.0,0.0,56,0.00,,,0.00,Wunderground v.1.15,2013-08-02 20:59:00,
2013-08-02 17:05:00,86.6,69.0,29.91,South,184,0.0,1.0,56,0.00,,,0.00,Wunderground v.1.15,2013-08-02 21:05:00,
2013-08-02 17:14:00,86.3,69.8,29.91,South,184,0.0,0.0,58,0.00,,,0.00,Wunderground v.1.15,2013-08-02 21:14:00,
2013-08-02 17:19:00,86.0,70.5,29.91,South,184,0.0,0.0,60,0.00,,,0.00,Wunderground v.1.15,2013-08-02 21:19:00,
2013-08-02 17:25:00,85.5,70.5,29.91,South,189,0.0,1.0,61,0.00,,,0.00,Wunderground v.1.15,2013-08-02 21:25:00,
2013-08-02 17:34:00,84.7,68.8,29.91,SW,224,0.0,1.0,59,0.00,,,0.00,Wunderground v.1.15,2013-08-02 21:34:00,
2013-08-02 17:44:00,84.1,68.7,29.91,SW,224,0.0,0.0,60,0.00,,,0.00,Wunderground v.1.15,2013-08-02 21:44:00,
2013-08-02 17:49:00,83.8,70.8,29.91,SW,224,0.0,0.0,65,0.00,,,0.00,Wunderground v.1.15,2013-08-02 21:49:00,
2013-08-02 17:59:00,83.2,70.2,29.91,SW,223,0.0,0.0,65,0.00,,,0.00,Wunderground v.1.15,2013-08-02 21:59:00,
2013-08-02 18:05:00,82.8,70.3,29.91,SSW,206,0.0,0.0,66,0.00,,,0.00,Wunderground v.1.15,2013-08-02 22:05:00,
2013-08-02 18:14:00,82.4,69.4,29.91,South,189,0.0,0.0,65,0.00,,,0.00,Wunderground v.1.15,2013-08-02 22:14:00,
2013-08-02 18:19:00,82.3,70.7,29.91,South,189,0.0,0.0,68,0.00,,,0.00,Wunderground v.1.15,2013-08-02 22:19:00,
2013-08-02 18:24:00,82.1,69.6,29.90,South,189,0.0,0.0,66,0.00,,,0.00,Wunderground v.1.15,2013-08-02 22:24:00,
2013-08-02 18:30:00,82.0,69.1,29.91,South,181,0.0,0.0,65,0.00,,,0.00,Wunderground v.1.15,2013-08-02 22:30:00,
2013-08-02 18:39:00,81.9,69.9,29.91,South,181,0.0,0.0,67,0.00,,,0.00,Wunderground v.1.15,2013-08-02 22:39:00,
2013-08-02 18:49:00,81.5,70.3,29.90,South,181,0.0,0.0,69,0.00,,,0.00,Wunderground v.1.15,2013-08-02 22:49:00,
2013-08-02 18:55:00,81.2,69.6,29.91,South,181,0.0,0.0,68,0.00,,,0.00,Wunderground v.1.15,2013-08-02 22:55:00,
2013-08-02 19:05:00,80.8,69.7,29.90,South,181,0.0,0.0,69,0.00,,,0.00,Wunderground v.1.15,2013-08-02 23:05:00,
2013-08-02 19:14:00,80.4,70.5,29.90,South,181,0.0,0.0,72,0.00,,,0.00,Wunderground v.1.15,2013-08-02 23:14:00,
2013-08-02 19:24:00,79.6,70.6,29.90,South,181,0.0,0.0,74,0.00,,,0.00,Wunderground v.1.15,2013-08-02 23:24:00,
2013-08-02 19:30:00,79.2,70.6,29.90,South,181,0.0,0.0,75,0.00,,,0.00,Wunderground v.1.15,2013-08-02 23:30:00,
2013-08-02 19:39:00,78.6,69.6,29.90,South,181,0.0,0.0,74,0.00,,,0.00,Wunderground v.1.15,2013-08-02 23:39:00,
2013-08-02 19:49:00,78.0,69.4,29.90,South,181,0.0,0.0,75,0.00,,,0.00,Wunderground v.1.15,2013-08-02 23:49:00,
2013-08-02 19:54:00,77.7,69.1,29.91,South,181,0.0,0.0,75,0.00,,,0.00,Wunderground v.1.15,2013-08-02 23:54:00,
2013-08-02 20:05:00,77.2,70.2,29.91,South,181,0.0,0.0,79,0.00,,,0.00,Wunderground v.1.15,2013-08-03 00:05:00,
2013-08-02 20:15:00,76.5,69.5,29.91,South,181,0.0,0.0,79,0.00,,,0.00,Wunderground v.1.15,2013-08-03 00:15:00,
2013-08-02 20:24:00,75.7,69.5,29.91,South,181,0.0,1.0,81,0.00,,,0.00,Wunderground v.1.15,2013-08-03 00:24:00,
2013-08-02 20:29:00,75.4,68.4,29.91,South,181,0.0,0.0,79,0.00,,,0.00,Wunderground v.1.15,2013-08-03 00:29:00,
2013-08-02 20:39:00,74.9,68.7,29.91,South,181,0.0,0.0,81,0.00,,,0.00,Wunderground v.1.15,2013-08-03 00:39:00,
2013-08-02 20:49:00,74.5,69.0,29.91,South,181,0.0,0.0,83,0.00,,,0.00,Wunderground v.1.15,2013-08-03 00:49:00,
2013-08-02 20:54:00,74.3,68.1,29.92,South,181,0.0,0.0,81,0.00,,,0.00,Wunderground v.1.15,2013-08-03 00:54:00,
2013-08-02 21:05:00,74.0,67.8,29.92,South,181,0.0,0.0,81,0.00,,,0.00,Wunderground v.1.15,2013-08-03 01:05:00,
2013-08-02 21:14:00,73.9,67.3,29.92,South,181,0.0,0.0,80,0.00,,,0.00,Wunderground v.1.15,2013-08-03 01:14:00,
2013-08-02 21:20:00,73.9,67.0,29.92,South,179,0.0,0.0,79,0.00,,,0.00,Wunderground v.1.15,2013-08-03 01:20:00,
2013-08-02 21:29:00,73.7,66.0,29.92,South,179,0.0,0.0,77,0.00,,,0.00,Wunderground v.1.15,2013-08-03 01:29:00,
2013-08-02 21:39:00,73.9,66.2,29.93,SSE,156,0.0,0.0,77,0.00,,,0.00,Wunderground v.1.15,2013-08-03 01:39:00,
2013-08-02 21:45:00,73.9,66.2,29.93,SSE,156,0.0,0.0,77,0.00,,,0.00,Wunderground v.1.15,2013-08-03 01:45:00,
2013-08-02 21:54:00,73.8,65.8,29.93,SSE,156,0.0,0.0,76,0.00,,,0.00,Wunderground v.1.15,2013-08-03 01:54:00,
2013-08-02 22:00:00,73.8,68.3,29.93,SSE,156,0.0,0.0,83,0.00,,,0.00,Wunderground v.1.15,2013-08-03 02:00:00,
2013-08-02 22:05:00,73.3,68.2,29.93,SSE,156,0.0,0.0,84,0.00,,,0.00,Wunderground v.1.15,2013-08-03 02:05:00,
2013-08-02 22:14:00,72.2,67.1,29.94,SSE,156,0.0,0.0,84,0.00,,,0.00,Wunderground v.1.15,2013-08-03 02:14:00,
2013-08-02 22:20:00,71.9,67.5,29.94,SSE,156,0.0,0.0,86,0.00,,,0.00,Wunderground v.1.15,2013-08-03 02:20:00,
2013-08-02 22:29:00,71.4,67.7,29.93,SSE,156,0.0,0.0,88,0.00,,,0.00,Wunderground v.1.15,2013-08-03 02:29:00,
2013-08-02 22:35:00,71.1,66.7,29.93,SSE,156,0.0,0.0,86,0.00,,,0.00,Wunderground v.1.15,2013-08-03 02:35:00,
2013-08-02 22:44:00,70.6,67.2,29.93,SSE,156,0.0,0.0,89,0.00,,,0.00,Wunderground v.1.15,2013-08-03 02:44:00,
2013-08-02 22:54:00,70.2,66.1,29.93,SSE,156,0.0,0.0,87,0.00,,,0.00,Wunderground v.1.15,2013-08-03 02:54:00,
2013-08-02 23:00:00,70.1,66.0,29.93,SSE,156,0.0,0.0,87,0.00,,,0.00,Wunderground v.1.15,2013-08-03 03:00:00,
2013-08-02 23:05:00,69.9,66.2,29.93,SSE,156,0.0,0.0,88,0.00,,,0.00,Wunderground v.1.15,2013-08-03 03:05:00,
2013-08-02 23:14:00,69.6,65.9,29.94,SSE,156,0.0,1.0,88,0.00,,,0.00,Wunderground v.1.15,2013-08-03 03:14:00,
2013-08-02 23:19:00,69.5,66.1,29.94,SSE,156,0.0,0.0,89,0.00,,,0.00,Wunderground v.1.15,2013-08-03 03:19:00,
2013-08-02 23:29:00,69.4,65.4,29.94,SSE,156,0.0,1.0,87,0.00,,,0.00,Wunderground v.1.15,2013-08-03 03:29:00,
2013-08-02 23:35:00,69.6,64.2,29.94,SSE,158,0.0,1.0,83,0.00,,,0.00,Wunderground v.1.15,2013-08-03 03:35:00,
2013-08-02 23:44:00,70.2,64.1,29.94,SSE,158,0.0,0.0,81,0.00,,,0.00,Wunderground v.1.15,2013-08-03 03:44:00,
2013-08-02 23:54:00,70.3,64.5,29.94,SSE,158,0.0,0.0,82,0.00,,,0.00,Wunderground v.1.15,2013-08-03 03:54:00,
2013-08-02 23:59:00,70.3,64.5,29.94,ESE,108,0.0,0.0,82,0.00,,,0.00,Wunderground v.1.15,2013-08-03 03:59:00,